sensor_id;sensor_type;location;lat;lon;timestamp;pressure;altitude;pressure_sealevel;temperature;humidity
5780;BME280;2916;49.798;10.022;2022-09-09T00:00:34;148034.25;;;15.25;81.45
5780;BME280;2916;49.798;10.022;2022-09-09T00:03:11;148097.78;;;15.51;81.60
5780;BME280;2916;49.798;10.022;2022-09-09T00:05:50;148084.09;;;15.45;81.69
5780;BME280;2916;49.798;10.022;2022-09-09T00:08:28;148079.09;;;15.43;81.71
5780;BME280;2916;49.798;10.022;2022-09-09T00:11:03;148049.22;;;15.31;82.62
5780;BME280;2916;49.798;10.022;2022-09-09T00:13:39;148044.22;;;15.29;82.92
5780;BME280;2916;49.798;10.022;2022-09-09T00:16:19;148064.19;;;15.37;82.91
5780;BME280;2916;49.798;10.022;2022-09-09T00:19:00;148011.88;;;15.15;82.99
5780;BME280;2916;49.798;10.022;2022-09-09T00:21:34;148039.28;;;15.27;83.43
5780;BME280;2916;49.798;10.022;2022-09-09T00:24:14;148036.78;;;15.26;84.24
5780;BME280;2916;49.798;10.022;2022-09-09T00:26:48;148021.84;;;15.19;84.65
5780;BME280;2916;49.798;10.022;2022-09-09T00:29:28;148029.31;;;15.22;84.00
5780;BME280;2916;49.798;10.022;2022-09-09T00:32:13;148021.84;;;15.19;85.13
5780;BME280;2916;49.798;10.022;2022-09-09T00:34:49;147996.97;;;15.09;85.74
5780;BME280;2916;49.798;10.022;2022-09-09T00:37:21;148034.25;;;15.25;85.71
5780;BME280;2916;49.798;10.022;2022-09-09T00:39:54;148019.34;;;15.18;88.99
5780;BME280;2916;49.798;10.022;2022-09-09T00:42:26;147979.53;;;15.02;90.40
5780;BME280;2916;49.798;10.022;2022-09-09T00:45:05;147942.19;;;14.87;91.73
5780;BME280;2916;49.798;10.022;2022-09-09T00:47:45;147998.19;;;15.10;93.03
5780;BME280;2916;49.798;10.022;2022-09-09T00:50:43;147994.44;;;15.08;92.41
5780;BME280;2916;49.798;10.022;2022-09-09T00:53:29;147980.75;;;15.03;92.20
5780;BME280;2916;49.798;10.022;2022-09-09T00:56:12;148001.91;;;15.11;92.08
5780;BME280;2916;49.798;10.022;2022-09-09T00:58:43;147989.50;;;15.06;94.90
5780;BME280;2916;49.798;10.022;2022-09-09T01:01:15;147970.81;;;14.98;93.17
5780;BME280;2916;49.798;10.022;2022-09-09T01:03:49;147929.75;;;14.82;94.43
5780;BME280;2916;49.798;10.022;2022-09-09T01:06:28;147962.09;;;14.95;93.65
5780;BME280;2916;49.798;10.022;2022-09-09T01:09:16;147957.09;;;14.93;92.72
5780;BME280;2916;49.798;10.022;2022-09-09T01:12:01;147953.38;;;14.91;91.43
5780;BME280;2916;49.798;10.022;2022-09-09T01:14:42;147959.63;;;14.94;92.17
5780;BME280;2916;49.798;10.022;2022-09-09T01:17:18;147967.06;;;14.97;92.62
5780;BME280;2916;49.798;10.022;2022-09-09T01:20:03;147972.06;;;14.99;91.31
5780;BME280;2916;49.798;10.022;2022-09-09T01:22:39;147937.19;;;14.85;91.03
5780;BME280;2916;49.798;10.022;2022-09-09T01:25:28;147933.47;;;14.83;90.64
5780;BME280;2916;49.798;10.022;2022-09-09T01:28:01;147985.72;;;15.05;90.20
5780;BME280;2916;49.798;10.022;2022-09-09T01:30:31;147987.00;;;15.05;90.26
5780;BME280;2916;49.798;10.022;2022-09-09T01:32:59;147991.97;;;15.07;90.46
5780;BME280;2916;49.798;10.022;2022-09-09T01:35:40;148019.34;;;15.18;92.43
5780;BME280;2916;49.798;10.022;2022-09-09T01:38:10;148004.41;;;15.12;92.60
5780;BME280;2916;49.798;10.022;2022-09-09T01:40:38;147953.38;;;14.91;93.24
5780;BME280;2916;49.798;10.022;2022-09-09T01:43:07;147989.50;;;15.06;91.50
5780;BME280;2916;49.798;10.022;2022-09-09T01:45:34;148009.41;;;15.14;93.67
5780;BME280;2916;49.798;10.022;2022-09-09T01:48:03;148011.88;;;15.15;89.54
5780;BME280;2916;49.798;10.022;2022-09-09T01:50:30;148029.31;;;15.22;90.51
5780;BME280;2916;49.798;10.022;2022-09-09T01:52:59;147959.63;;;14.94;89.72
5780;BME280;2916;49.798;10.022;2022-09-09T01:55:33;148040.50;;;15.27;89.89
5780;BME280;2916;49.798;10.022;2022-09-09T01:58:28;148055.47;;;15.33;90.90
5780;BME280;2916;49.798;10.022;2022-09-09T02:01:06;148052.94;;;15.32;90.27
5780;BME280;2916;49.798;10.022;2022-09-09T02:03:37;148054.22;;;15.33;89.52
5780;BME280;2916;49.798;10.022;2022-09-09T02:06:19;148059.19;;;15.35;89.60
5780;BME280;2916;49.798;10.022;2022-09-09T02:08:55;148064.19;;;15.37;90.76
5780;BME280;2916;49.798;10.022;2022-09-09T02:11:26;148072.84;;;15.40;89.83
5780;BME280;2916;49.798;10.022;2022-09-09T02:14:00;148080.34;;;15.43;89.06
5780;BME280;2916;49.798;10.022;2022-09-09T02:16:34;148086.59;;;15.46;89.28
5780;BME280;2916;49.798;10.022;2022-09-09T02:19:11;148084.09;;;15.45;88.92
5780;BME280;2916;49.798;10.022;2022-09-09T02:21:44;148064.19;;;15.37;89.11
5780;BME280;2916;49.798;10.022;2022-09-09T02:24:15;148054.22;;;15.33;88.97
5780;BME280;2916;49.798;10.022;2022-09-09T02:26:47;148062.91;;;15.36;89.15
5780;BME280;2916;49.798;10.022;2022-09-09T02:29:22;148059.19;;;15.35;88.60
5780;BME280;2916;49.798;10.022;2022-09-09T02:31:52;148056.72;;;15.34;88.32
5780;BME280;2916;49.798;10.022;2022-09-09T02:34:24;148059.19;;;15.35;88.40
5780;BME280;2916;49.798;10.022;2022-09-09T02:36:54;148039.28;;;15.27;87.24
5780;BME280;2916;49.798;10.022;2022-09-09T02:39:23;148079.09;;;15.43;87.11
5780;BME280;2916;49.798;10.022;2022-09-09T02:41:50;148079.09;;;15.43;87.05
5780;BME280;2916;49.798;10.022;2022-09-09T02:44:19;148069.16;;;15.39;86.07
5780;BME280;2916;49.798;10.022;2022-09-09T02:47:16;148071.63;;;15.40;86.92
5780;BME280;2916;49.798;10.022;2022-09-09T02:50:02;148048.00;;;15.30;87.39
5780;BME280;2916;49.798;10.022;2022-09-09T02:52:45;148055.47;;;15.33;87.51
5780;BME280;2916;49.798;10.022;2022-09-09T02:55:38;148056.72;;;15.34;87.84
5780;BME280;2916;49.798;10.022;2022-09-09T02:58:11;148052.94;;;15.32;88.49
5780;BME280;2916;49.798;10.022;2022-09-09T03:00:46;148038.03;;;15.26;87.46
5780;BME280;2916;49.798;10.022;2022-09-09T03:03:15;148061.66;;;15.36;87.05
5780;BME280;2916;49.798;10.022;2022-09-09T03:05:43;148009.41;;;15.14;87.31
5780;BME280;2916;49.798;10.022;2022-09-09T03:08:12;148054.22;;;15.33;87.59
5780;BME280;2916;49.798;10.022;2022-09-09T03:10:39;147959.63;;;14.94;87.35
5780;BME280;2916;49.798;10.022;2022-09-09T03:13:07;148039.28;;;15.27;87.26
5780;BME280;2916;49.798;10.022;2022-09-09T03:15:35;147996.97;;;15.09;87.66
5780;BME280;2916;49.798;10.022;2022-09-09T03:18:04;148044.22;;;15.29;86.12
5780;BME280;2916;49.798;10.022;2022-09-09T03:20:32;148052.94;;;15.32;86.10
5780;BME280;2916;49.798;10.022;2022-09-09T03:23:00;148051.72;;;15.32;87.51
5780;BME280;2916;49.798;10.022;2022-09-09T03:25:28;148050.47;;;15.31;86.66
5780;BME280;2916;49.798;10.022;2022-09-09T03:27:56;148054.22;;;15.33;86.04
5780;BME280;2916;49.798;10.022;2022-09-09T03:30:24;148011.88;;;15.15;86.29
5780;BME280;2916;49.798;10.022;2022-09-09T03:32:51;148052.94;;;15.32;86.06
5780;BME280;2916;49.798;10.022;2022-09-09T03:35:20;148060.41;;;15.35;86.83
5780;BME280;2916;49.798;10.022;2022-09-09T03:37:47;148051.72;;;15.32;86.96
5780;BME280;2916;49.798;10.022;2022-09-09T03:40:15;148038.03;;;15.26;86.98
5780;BME280;2916;49.798;10.022;2022-09-09T03:42:42;148059.19;;;15.35;87.18
5780;BME280;2916;49.798;10.022;2022-09-09T03:45:10;148039.28;;;15.27;88.53
5780;BME280;2916;49.798;10.022;2022-09-09T03:47:37;148046.75;;;15.30;88.46
5780;BME280;2916;49.798;10.022;2022-09-09T03:50:06;148051.72;;;15.32;88.25
5780;BME280;2916;49.798;10.022;2022-09-09T03:52:38;148029.31;;;15.22;88.98
5780;BME280;2916;49.798;10.022;2022-09-09T03:55:08;148045.50;;;15.29;89.36
5780;BME280;2916;49.798;10.022;2022-09-09T03:57:35;148041.75;;;15.28;88.04
5780;BME280;2916;49.798;10.022;2022-09-09T04:00:04;148039.28;;;15.27;89.49
5780;BME280;2916;49.798;10.022;2022-09-09T04:02:32;148040.50;;;15.27;88.25
5780;BME280;2916;49.798;10.022;2022-09-09T04:04:59;148046.75;;;15.30;88.17
5780;BME280;2916;49.798;10.022;2022-09-09T04:07:26;148031.78;;;15.23;89.39
5780;BME280;2916;49.798;10.022;2022-09-09T04:09:55;148025.59;;;15.21;89.90
5780;BME280;2916;49.798;10.022;2022-09-09T04:12:22;148021.84;;;15.19;91.05
5780;BME280;2916;49.798;10.022;2022-09-09T04:14:50;148013.13;;;15.16;88.36
5780;BME280;2916;49.798;10.022;2022-09-09T04:17:17;148024.31;;;15.20;87.73
5780;BME280;2916;49.798;10.022;2022-09-09T04:19:44;148036.78;;;15.26;87.92
5780;BME280;2916;49.798;10.022;2022-09-09T04:22:12;148039.28;;;15.27;88.20
5780;BME280;2916;49.798;10.022;2022-09-09T04:24:39;148024.31;;;15.20;88.00
5780;BME280;2916;49.798;10.022;2022-09-09T04:27:07;148031.78;;;15.23;87.51
5780;BME280;2916;49.798;10.022;2022-09-09T04:29:34;148036.78;;;15.26;86.22
5780;BME280;2916;49.798;10.022;2022-09-09T04:32:02;148041.75;;;15.28;87.32
5780;BME280;2916;49.798;10.022;2022-09-09T04:34:30;147977.00;;;15.01;86.73
5780;BME280;2916;49.798;10.022;2022-09-09T04:36:58;147977.00;;;15.01;86.29
5780;BME280;2916;49.798;10.022;2022-09-09T04:39:26;148033.03;;;15.24;86.89
5780;BME280;2916;49.798;10.022;2022-09-09T04:41:53;148034.25;;;15.25;85.47
5780;BME280;2916;49.798;10.022;2022-09-09T04:44:22;148041.75;;;15.28;84.71
5780;BME280;2916;49.798;10.022;2022-09-09T04:46:49;148049.22;;;15.31;84.74
5780;BME280;2916;49.798;10.022;2022-09-09T04:49:16;148054.22;;;15.33;84.44
5780;BME280;2916;49.798;10.022;2022-09-09T04:51:43;148018.13;;;15.18;84.72
5780;BME280;2916;49.798;10.022;2022-09-09T04:54:11;148039.28;;;15.27;85.20
5780;BME280;2916;49.798;10.022;2022-09-09T04:56:38;148016.88;;;15.17;85.55
5780;BME280;2916;49.798;10.022;2022-09-09T04:59:07;148036.78;;;15.26;85.33
5780;BME280;2916;49.798;10.022;2022-09-09T05:01:37;148036.78;;;15.26;86.23
5780;BME280;2916;49.798;10.022;2022-09-09T05:04:04;148036.78;;;15.26;85.96
5780;BME280;2916;49.798;10.022;2022-09-09T05:06:31;148028.06;;;15.22;86.20
5780;BME280;2916;49.798;10.022;2022-09-09T05:08:58;148036.78;;;15.26;86.40
5780;BME280;2916;49.798;10.022;2022-09-09T05:11:27;148006.91;;;15.13;86.77
5780;BME280;2916;49.798;10.022;2022-09-09T05:13:55;148044.22;;;15.29;86.64
5780;BME280;2916;49.798;10.022;2022-09-09T05:16:23;148042.97;;;15.28;87.03
5780;BME280;2916;49.798;10.022;2022-09-09T05:18:52;148041.75;;;15.28;86.90
5780;BME280;2916;49.798;10.022;2022-09-09T05:21:22;148036.78;;;15.26;86.32
5780;BME280;2916;49.798;10.022;2022-09-09T05:23:50;148099.03;;;15.51;85.34
5780;BME280;2916;49.798;10.022;2022-09-09T05:26:20;148252.25;;;16.14;83.62
5780;BME280;2916;49.798;10.022;2022-09-09T05:28:48;148265.97;;;16.19;82.80
5780;BME280;2916;49.798;10.022;2022-09-09T05:31:18;148325.75;;;16.44;82.04
5780;BME280;2916;49.798;10.022;2022-09-09T05:33:47;148400.56;;;16.75;80.55
5780;BME280;2916;49.798;10.022;2022-09-09T05:36:19;148366.84;;;16.61;79.30
5780;BME280;2916;49.798;10.022;2022-09-09T05:38:46;148403.06;;;16.76;78.94
5780;BME280;2916;49.798;10.022;2022-09-09T05:41:15;148308.31;;;16.37;80.72
5780;BME280;2916;49.798;10.022;2022-09-09T05:43:44;148292.09;;;16.30;81.48
5780;BME280;2916;49.798;10.022;2022-09-09T05:46:15;148227.34;;;16.04;82.66
5780;BME280;2916;49.798;10.022;2022-09-09T05:48:45;148251.00;;;16.13;82.61
5780;BME280;2916;49.798;10.022;2022-09-09T05:51:16;148249.75;;;16.13;82.65
5780;BME280;2916;49.798;10.022;2022-09-09T05:53:45;148233.56;;;16.06;83.57
5780;BME280;2916;49.798;10.022;2022-09-09T05:56:15;148251.00;;;16.13;82.69
5780;BME280;2916;49.798;10.022;2022-09-09T05:58:44;148295.88;;;16.32;82.45
5780;BME280;2916;49.798;10.022;2022-09-09T06:01:15;148277.19;;;16.24;83.49
5780;BME280;2916;49.798;10.022;2022-09-09T06:03:45;148258.50;;;16.16;83.11
5780;BME280;2916;49.798;10.022;2022-09-09T06:06:17;148251.00;;;16.13;83.53
5780;BME280;2916;49.798;10.022;2022-09-09T06:08:47;148221.13;;;16.01;84.10
5780;BME280;2916;49.798;10.022;2022-09-09T06:11:17;148196.19;;;15.91;84.28
5780;BME280;2916;49.798;10.022;2022-09-09T06:13:45;148206.16;;;15.95;84.64
5780;BME280;2916;49.798;10.022;2022-09-09T06:16:19;148213.63;;;15.98;84.91
5780;BME280;2916;49.798;10.022;2022-09-09T06:18:46;148206.16;;;15.95;85.24
5780;BME280;2916;49.798;10.022;2022-09-09T06:21:18;148223.59;;;16.02;85.48
5780;BME280;2916;49.798;10.022;2022-09-09T06:23:47;148238.56;;;16.08;85.49
5780;BME280;2916;49.798;10.022;2022-09-09T06:26:17;148233.56;;;16.06;85.55
5780;BME280;2916;49.798;10.022;2022-09-09T06:28:45;148227.34;;;16.04;85.53
5780;BME280;2916;49.798;10.022;2022-09-09T06:31:15;148246.06;;;16.11;85.66
5780;BME280;2916;49.798;10.022;2022-09-09T06:33:43;148216.13;;;15.99;84.71
5780;BME280;2916;49.798;10.022;2022-09-09T06:36:13;148231.09;;;16.05;85.10
5780;BME280;2916;49.798;10.022;2022-09-09T06:38:42;148229.84;;;16.05;84.64
5780;BME280;2916;49.798;10.022;2022-09-09T06:41:10;148213.63;;;15.98;85.08
5780;BME280;2916;49.798;10.022;2022-09-09T06:43:38;148213.63;;;15.98;85.72
5780;BME280;2916;49.798;10.022;2022-09-09T06:46:13;148201.19;;;15.93;85.58
5780;BME280;2916;49.798;10.022;2022-09-09T06:48:42;148233.56;;;16.06;85.00
5780;BME280;2916;49.798;10.022;2022-09-09T06:51:13;148207.44;;;15.95;86.25
5780;BME280;2916;49.798;10.022;2022-09-09T06:53:44;148211.16;;;15.97;85.20
5780;BME280;2916;49.798;10.022;2022-09-09T06:56:20;148243.53;;;16.10;84.98
5780;BME280;2916;49.798;10.022;2022-09-09T06:58:50;148201.19;;;15.93;84.78
5780;BME280;2916;49.798;10.022;2022-09-09T07:01:20;148270.94;;;16.22;85.32
5780;BME280;2916;49.798;10.022;2022-09-09T07:03:49;148234.81;;;16.07;84.46
5780;BME280;2916;49.798;10.022;2022-09-09T07:06:19;148285.91;;;16.28;84.95
5780;BME280;2916;49.798;10.022;2022-09-09T07:08:56;148398.06;;;16.74;83.89
5780;BME280;2916;49.798;10.022;2022-09-09T07:11:27;148606.22;;;17.59;80.60
5780;BME280;2916;49.798;10.022;2022-09-09T07:13:57;148824.53;;;18.48;78.04
5780;BME280;2916;49.798;10.022;2022-09-09T07:16:26;148870.69;;;18.67;75.74
5780;BME280;2916;49.798;10.022;2022-09-09T07:18:55;148998.00;;;19.19;74.21
5780;BME280;2916;49.798;10.022;2022-09-09T07:21:24;148788.34;;;18.33;74.28
5780;BME280;2916;49.798;10.022;2022-09-09T07:23:54;148851.97;;;18.59;74.46
5780;BME280;2916;49.798;10.022;2022-09-09T07:26:24;148793.34;;;18.35;74.08
5780;BME280;2916;49.798;10.022;2022-09-09T07:28:52;148809.53;;;18.42;73.71
5780;BME280;2916;49.798;10.022;2022-09-09T07:31:24;148899.44;;;18.79;72.45
5780;BME280;2916;49.798;10.022;2022-09-09T07:33:52;149114.13;;;19.67;70.31
5780;BME280;2916;49.798;10.022;2022-09-09T07:36:22;149090.34;;;19.57;70.74
5780;BME280;2916;49.798;10.022;2022-09-09T07:38:52;148994.22;;;19.18;70.89
5780;BME280;2916;49.798;10.022;2022-09-09T07:41:25;149025.47;;;19.30;71.08
5780;BME280;2916;49.798;10.022;2022-09-09T07:43:53;149267.72;;;20.29;69.38
5780;BME280;2916;49.798;10.022;2022-09-09T07:46:23;149016.72;;;19.27;70.66
5780;BME280;2916;49.798;10.022;2022-09-09T07:48:53;149131.63;;;19.74;69.24
5780;BME280;2916;49.798;10.022;2022-09-09T07:51:24;149056.66;;;19.43;71.18
5780;BME280;2916;49.798;10.022;2022-09-09T07:53:54;149009.22;;;19.24;71.35
5780;BME280;2916;49.798;10.022;2022-09-09T07:56:26;149021.69;;;19.29;71.58
5780;BME280;2916;49.798;10.022;2022-09-09T07:58:55;149029.19;;;19.32;71.77
5780;BME280;2916;49.798;10.022;2022-09-09T08:01:28;149044.19;;;19.38;71.59
5780;BME280;2916;49.798;10.022;2022-09-09T08:03:58;148966.81;;;19.06;71.89
5780;BME280;2916;49.798;10.022;2022-09-09T08:06:28;148941.84;;;18.96;72.65
5780;BME280;2916;49.798;10.022;2022-09-09T08:08:56;148906.88;;;18.82;72.42
5780;BME280;2916;49.798;10.022;2022-09-09T08:11:27;148904.41;;;18.81;72.88
5780;BME280;2916;49.798;10.022;2022-09-09T08:13:55;148989.25;;;19.16;72.49
5780;BME280;2916;49.798;10.022;2022-09-09T08:16:26;149129.09;;;19.73;71.74
5780;BME280;2916;49.798;10.022;2022-09-09T08:18:54;149002.97;;;19.21;72.14
5780;BME280;2916;49.798;10.022;2022-09-09T08:21:24;149110.41;;;19.65;71.16
5780;BME280;2916;49.798;10.022;2022-09-09T08:23:54;149287.69;;;20.38;69.88
5780;BME280;2916;49.798;10.022;2022-09-09T08:26:25;149151.59;;;19.82;70.07
5780;BME280;2916;49.798;10.022;2022-09-09T08:28:56;149243.97;;;20.20;69.06
5780;BME280;2916;49.798;10.022;2022-09-09T08:31:26;149421.41;;;20.92;68.88
5780;BME280;2916;49.798;10.022;2022-09-09T08:33:56;149403.91;;;20.85;65.40
5780;BME280;2916;49.798;10.022;2022-09-09T08:36:27;149451.38;;;21.04;65.37
5780;BME280;2916;49.798;10.022;2022-09-09T08:38:57;149417.66;;;20.91;65.84
5780;BME280;2916;49.798;10.022;2022-09-09T08:45:16;149363.94;;;20.69;66.64
5780;BME280;2916;49.798;10.022;2022-09-09T08:48:02;149387.63;;;20.78;67.35
5780;BME280;2916;49.798;10.022;2022-09-09T08:50:36;149303.94;;;20.44;67.15
5780;BME280;2916;49.798;10.022;2022-09-09T08:53:14;149320.19;;;20.51;67.01
5780;BME280;2916;49.798;10.022;2022-09-09T08:55:47;149606.38;;;21.68;63.99
5780;BME280;2916;49.798;10.022;2022-09-09T08:58:19;149625.13;;;21.75;64.50
5780;BME280;2916;49.798;10.022;2022-09-09T09:01:09;149525.16;;;21.35;64.03
5780;BME280;2916;49.798;10.022;2022-09-09T09:03:53;149643.88;;;21.83;63.78
5780;BME280;2916;49.798;10.022;2022-09-09T09:06:43;149566.38;;;21.51;63.12
5780;BME280;2916;49.798;10.022;2022-09-09T09:09:21;149650.13;;;21.86;63.14
5780;BME280;2916;49.798;10.022;2022-09-09T09:11:54;149656.34;;;21.88;62.34
5780;BME280;2916;49.798;10.022;2022-09-09T09:14:30;149701.38;;;22.06;61.77
5780;BME280;2916;49.798;10.022;2022-09-09T09:17:02;149693.88;;;22.03;61.76
5780;BME280;2916;49.798;10.022;2022-09-09T09:19:35;149671.38;;;21.94;61.95
5780;BME280;2916;49.798;10.022;2022-09-09T09:22:15;149701.38;;;22.06;61.87
5780;BME280;2916;49.798;10.022;2022-09-09T09:24:51;149733.91;;;22.20;60.42
5780;BME280;2916;49.798;10.022;2022-09-09T09:27:31;149663.88;;;21.91;60.67
5780;BME280;2916;49.798;10.022;2022-09-09T09:30:02;149788.94;;;22.42;61.16
5780;BME280;2916;49.798;10.022;2022-09-09T09:32:36;149766.44;;;22.33;60.47
5780;BME280;2916;49.798;10.022;2022-09-09T09:35:11;149803.97;;;22.48;59.75
5780;BME280;2916;49.798;10.022;2022-09-09T09:37:41;149811.44;;;22.51;59.52
5780;BME280;2916;49.798;10.022;2022-09-09T09:40:13;149888.97;;;22.83;58.64
5780;BME280;2916;49.798;10.022;2022-09-09T09:42:51;149873.97;;;22.77;58.46
5780;BME280;2916;49.798;10.022;2022-09-09T09:45:31;149974.09;;;23.18;57.90
5780;BME280;2916;49.798;10.022;2022-09-09T09:48:00;149884.00;;;22.81;57.38
5780;BME280;2916;49.798;10.022;2022-09-09T09:50:30;150074.19;;;23.59;56.45
5780;BME280;2916;49.798;10.022;2022-09-09T09:53:00;149999.13;;;23.28;55.93
5780;BME280;2916;49.798;10.022;2022-09-09T09:55:31;149927.78;;;22.99;56.01
5780;BME280;2916;49.798;10.022;2022-09-09T09:58:05;149974.09;;;23.18;56.19
5780;BME280;2916;49.798;10.022;2022-09-09T10:00:35;149831.44;;;22.60;56.59
5780;BME280;2916;49.798;10.022;2022-09-09T10:03:13;149942.81;;;23.05;56.56
5780;BME280;2916;49.798;10.022;2022-09-09T10:05:46;149976.63;;;23.19;55.85
5780;BME280;2916;49.798;10.022;2022-09-09T10:08:16;150141.81;;;23.86;56.51
5780;BME280;2916;49.798;10.022;2022-09-09T10:11:01;150146.78;;;23.88;53.75
5780;BME280;2916;49.798;10.022;2022-09-09T10:13:39;150104.28;;;23.71;54.25
5780;BME280;2916;49.798;10.022;2022-09-09T10:16:28;149945.31;;;23.06;54.95
5780;BME280;2916;49.798;10.022;2022-09-09T10:19:00;149937.84;;;23.03;55.05
5780;BME280;2916;49.798;10.022;2022-09-09T10:22:02;149967.84;;;23.15;55.24
5780;BME280;2916;49.798;10.022;2022-09-09T10:25:24;150024.13;;;23.38;55.54
5780;BME280;2916;49.798;10.022;2022-09-09T10:28:25;150239.44;;;24.26;53.76
5780;BME280;2916;49.798;10.022;2022-09-09T10:31:11;150373.44;;;24.81;52.31
5780;BME280;2916;49.798;10.022;2022-09-09T10:33:51;150293.28;;;24.48;52.56
5780;BME280;2916;49.798;10.022;2022-09-09T10:36:25;150260.69;;;24.35;52.87
5780;BME280;2916;49.798;10.022;2022-09-09T10:38:59;150196.84;;;24.09;52.08
5780;BME280;2916;49.798;10.022;2022-09-09T10:41:45;150290.78;;;24.47;50.97
5780;BME280;2916;49.798;10.022;2022-09-09T10:44:49;150250.69;;;24.31;50.93
5780;BME280;2916;49.798;10.022;2022-09-09T10:48:04;150022.88;;;23.38;53.26
5780;BME280;2916;49.798;10.022;2022-09-09T10:51:03;149373.91;;;20.73;63.24
5780;BME280;2916;49.798;10.022;2022-09-09T10:53:48;149343.94;;;20.61;65.58
5780;BME280;2916;49.798;10.022;2022-09-09T10:56:21;149196.56;;;20.00;65.00
5780;BME280;2916;49.798;10.022;2022-09-09T10:58:56;149035.44;;;19.34;66.26
5780;BME280;2916;49.798;10.022;2022-09-09T11:01:33;149109.13;;;19.65;67.38
5780;BME280;2916;49.798;10.022;2022-09-09T11:04:13;149146.56;;;19.80;67.37
5780;BME280;2916;49.798;10.022;2022-09-09T11:06:48;149089.09;;;19.56;68.07
5780;BME280;2916;49.798;10.022;2022-09-09T11:09:22;149146.56;;;19.80;68.42
5780;BME280;2916;49.798;10.022;2022-09-09T11:11:53;149109.13;;;19.65;66.77
5780;BME280;2916;49.798;10.022;2022-09-09T11:14:29;149182.78;;;19.95;66.26
5780;BME280;2916;49.798;10.022;2022-09-09T11:17:02;149223.97;;;20.11;66.82
5780;BME280;2916;49.798;10.022;2022-09-09T11:19:34;149286.44;;;20.37;64.94
5780;BME280;2916;49.798;10.022;2022-09-09T11:22:15;149141.59;;;19.78;64.30
5780;BME280;2916;49.798;10.022;2022-09-09T11:24:50;149169.06;;;19.89;64.96
5780;BME280;2916;49.798;10.022;2022-09-09T11:27:27;149090.34;;;19.57;64.02
5780;BME280;2916;49.798;10.022;2022-09-09T11:30:19;149190.28;;;19.98;63.85
5780;BME280;2916;49.798;10.022;2022-09-09T11:33:26;149176.53;;;19.92;63.31
5780;BME280;2916;49.798;10.022;2022-09-09T11:36:21;149348.91;;;20.63;63.07
5780;BME280;2916;49.798;10.022;2022-09-09T11:38:58;149413.88;;;20.89;61.78
5780;BME280;2916;49.798;10.022;2022-09-09T11:41:35;149455.09;;;21.06;61.48
5780;BME280;2916;49.798;10.022;2022-09-09T11:44:11;149468.88;;;21.12;61.26
5780;BME280;2916;49.798;10.022;2022-09-09T11:46:41;149572.66;;;21.54;59.19
5780;BME280;2916;49.798;10.022;2022-09-09T11:49:27;149568.88;;;21.52;56.51
5780;BME280;2916;49.798;10.022;2022-09-09T11:51:57;149743.91;;;22.24;58.23
5780;BME280;2916;49.798;10.022;2022-09-09T11:54:32;149751.44;;;22.27;56.39
5780;BME280;2916;49.798;10.022;2022-09-09T11:57:23;149782.66;;;22.40;56.09
5780;BME280;2916;49.798;10.022;2022-09-09T11:59:52;149818.94;;;22.54;55.54
5780;BME280;2916;49.798;10.022;2022-09-09T12:02:24;149818.94;;;22.54;53.99
5780;BME280;2916;49.798;10.022;2022-09-09T12:04:59;149870.25;;;22.75;54.44
5780;BME280;2916;49.798;10.022;2022-09-09T12:07:39;149909.06;;;22.91;54.58
5780;BME280;2916;49.798;10.022;2022-09-09T12:10:26;149971.59;;;23.17;52.85
5780;BME280;2916;49.798;10.022;2022-09-09T12:12:54;149904.00;;;22.89;53.42
5780;BME280;2916;49.798;10.022;2022-09-09T12:15:30;149937.84;;;23.03;54.03
5780;BME280;2916;49.798;10.022;2022-09-09T12:17:58;149906.50;;;22.90;54.87
5780;BME280;2916;49.798;10.022;2022-09-09T12:20:34;150030.38;;;23.41;54.61
5780;BME280;2916;49.798;10.022;2022-09-09T12:23:19;150125.53;;;23.80;52.73
5780;BME280;2916;49.798;10.022;2022-09-09T12:26:22;150101.78;;;23.70;55.83
5780;BME280;2916;49.798;10.022;2022-09-09T12:29:06;150054.19;;;23.50;56.42
5780;BME280;2916;49.798;10.022;2022-09-09T12:31:46;150074.19;;;23.59;57.47
5780;BME280;2916;49.798;10.022;2022-09-09T12:34:18;150134.31;;;23.83;56.03
5780;BME280;2916;49.798;10.022;2022-09-09T12:36:58;150061.66;;;23.53;55.20
5780;BME280;2916;49.798;10.022;2022-09-09T12:39:34;150136.78;;;23.84;55.26
5780;BME280;2916;49.798;10.022;2022-09-09T12:42:04;150206.84;;;24.13;55.54
5780;BME280;2916;49.798;10.022;2022-09-09T12:44:32;149974.09;;;23.18;54.05
5780;BME280;2916;49.798;10.022;2022-09-09T12:47:02;149984.09;;;23.22;55.27
5780;BME280;2916;49.798;10.022;2022-09-09T12:49:33;149967.84;;;23.15;55.66
5780;BME280;2916;49.798;10.022;2022-09-09T12:52:06;149994.09;;;23.26;59.37
5780;BME280;2916;49.798;10.022;2022-09-09T12:54:37;149931.56;;;23.00;59.44
5780;BME280;2916;49.798;10.022;2022-09-09T12:57:11;149972.84;;;23.17;56.34
5780;BME280;2916;49.798;10.022;2022-09-09T12:59:41;149915.28;;;22.94;58.43
5780;BME280;2916;49.798;10.022;2022-09-09T13:02:19;149791.44;;;22.43;56.73
5780;BME280;2916;49.798;10.022;2022-09-09T13:04:48;149838.94;;;22.63;55.93
5780;BME280;2916;49.798;10.022;2022-09-09T13:07:16;149892.75;;;22.85;56.68
5780;BME280;2916;49.798;10.022;2022-09-09T13:09:44;149909.06;;;22.91;55.34
5780;BME280;2916;49.798;10.022;2022-09-09T13:12:19;149994.09;;;23.26;55.92
5780;BME280;2916;49.798;10.022;2022-09-09T13:14:49;149950.34;;;23.08;56.05
5780;BME280;2916;49.798;10.022;2022-09-09T13:17:23;149980.34;;;23.20;55.69
5780;BME280;2916;49.798;10.022;2022-09-09T13:19:52;149954.06;;;23.10;55.13
5780;BME280;2916;49.798;10.022;2022-09-09T13:22:30;149919.06;;;22.95;56.23
5780;BME280;2916;49.798;10.022;2022-09-09T13:25:01;149927.78;;;22.99;55.48
5780;BME280;2916;49.798;10.022;2022-09-09T13:27:33;149884.00;;;22.81;56.07
5780;BME280;2916;49.798;10.022;2022-09-09T13:30:21;149853.97;;;22.69;56.65
5780;BME280;2916;49.798;10.022;2022-09-09T13:33:18;149884.00;;;22.81;56.79
5780;BME280;2916;49.798;10.022;2022-09-09T13:35:52;149947.84;;;23.07;57.70
5780;BME280;2916;49.798;10.022;2022-09-09T13:38:21;149847.72;;;22.66;55.31